Accueil
METAR-TAF:

METAR-TAF

Aéroports :

Sullivan County International Airport

Monticello, New York, États-Unis

latitude: 41-42N, longitude: 074-48W, altitude: 428 m

Observation

Le bulletin a été fait il y a 11 minutes, à 14:56 UTC
Vent 8 kt de ouest/nord-ouest
Température 14°C
Humidité 67%
Pression 1013 hPa
Visibilité: 16.1 km
Nuages fragmentés à une hauteur de 2900 ft
Nuages fragmentés à une hauteur de 3500 ft

METAR: KMSV 011456Z AUTO 30008KT 10SM BKN029 BKN035 14/08 A2991 RMK AO2 SLP130 T01440083 51012

Heure: 11:07 (15:07 UTC)


TAF: absent

Observations et prévisions météorologiques de plus de 4000 aéroports (messages METAR et TAF).

Les stations disponibles sont représentées par des disques jaunes et rouges sur la carte.

Passer la souris dessus pour voir le nom de la station.

Cliquer dessus pour voir les observations et prévisions météorologiques.

Pour changer de carte: cliquez sur les boutons verts avec une croix noire pour zoomer, sur le bouton vert avec un tiret pour effectuer un zoom arrière, ou sur les flèches vertes pour les cartes adjacentes.


METAR-TAF: